sensor_id;sensor_type;location;lat;lon;timestamp;P1;durP1;ratioP1;P2;durP2;ratioP2
7883;SDS011;3987;51.458;7.238;2022-09-01T00:00:38;1.80;;;0.90;;
7883;SDS011;3987;51.458;7.238;2022-09-01T00:03:06;2.83;;;1.07;;
7883;SDS011;3987;51.458;7.238;2022-09-01T00:05:32;0.93;;;0.93;;
7883;SDS011;3987;51.458;7.238;2022-09-01T00:07:58;3.33;;;1.13;;
7883;SDS011;3987;51.458;7.238;2022-09-01T00:10:24;1.23;;;0.80;;
7883;SDS011;3987;51.458;7.238;2022-09-01T00:12:49;0.90;;;0.90;;
7883;SDS011;3987;51.458;7.238;2022-09-01T00:15:15;1.50;;;1.50;;
7883;SDS011;3987;51.458;7.238;2022-09-01T00:17:41;1.70;;;1.10;;
7883;SDS011;3987;51.458;7.238;2022-09-01T00:20:07;0.97;;;0.97;;
7883;SDS011;3987;51.458;7.238;2022-09-01T00:22:32;1.50;;;1.20;;
7883;SDS011;3987;51.458;7.238;2022-09-01T00:24:58;1.70;;;0.80;;
7883;SDS011;3987;51.458;7.238;2022-09-01T00:27:25;0.97;;;0.97;;
7883;SDS011;3987;51.458;7.238;2022-09-01T00:29:50;1.30;;;1.30;;
7883;SDS011;3987;51.458;7.238;2022-09-01T00:32:15;0.80;;;0.80;;
7883;SDS011;3987;51.458;7.238;2022-09-01T00:34:41;1.90;;;1.27;;
7883;SDS011;3987;51.458;7.238;2022-09-01T00:37:06;1.27;;;0.90;;
7883;SDS011;3987;51.458;7.238;2022-09-01T00:39:32;4.93;;;1.10;;
7883;SDS011;3987;51.458;7.238;2022-09-01T00:41:57;1.30;;;1.17;;
7883;SDS011;3987;51.458;7.238;2022-09-01T00:44:24;1.30;;;1.10;;
7883;SDS011;3987;51.458;7.238;2022-09-01T00:46:52;0.93;;;0.93;;
7883;SDS011;3987;51.458;7.238;2022-09-01T00:49:21;2.70;;;1.10;;
7883;SDS011;3987;51.458;7.238;2022-09-01T00:51:49;2.03;;;0.87;;
7883;SDS011;3987;51.458;7.238;2022-09-01T00:54:18;1.37;;;1.27;;
7883;SDS011;3987;51.458;7.238;2022-09-01T00:56:46;1.00;;;1.00;;
7883;SDS011;3987;51.458;7.238;2022-09-01T00:59:12;1.23;;;1.00;;
7883;SDS011;3987;51.458;7.238;2022-09-01T01:01:38;1.40;;;1.30;;
7883;SDS011;3987;51.458;7.238;2022-09-01T01:04:05;2.47;;;1.10;;
7883;SDS011;3987;51.458;7.238;2022-09-01T01:06:39;1.07;;;1.07;;
7883;SDS011;3987;51.458;7.238;2022-09-01T01:09:07;1.20;;;1.00;;
7883;SDS011;3987;51.458;7.238;2022-09-01T01:11:33;1.13;;;0.80;;
7883;SDS011;3987;51.458;7.238;2022-09-01T01:14:00;1.10;;;1.10;;
7883;SDS011;3987;51.458;7.238;2022-09-01T01:16:36;1.07;;;1.07;;
7883;SDS011;3987;51.458;7.238;2022-09-01T01:19:05;1.10;;;1.10;;
7883;SDS011;3987;51.458;7.238;2022-09-01T01:21:38;2.00;;;1.13;;
7883;SDS011;3987;51.458;7.238;2022-09-01T01:24:30;0.87;;;0.87;;
7883;SDS011;3987;51.458;7.238;2022-09-01T01:26:58;3.93;;;1.27;;
7883;SDS011;3987;51.458;7.238;2022-09-01T01:29:32;1.40;;;1.17;;
7883;SDS011;3987;51.458;7.238;2022-09-01T01:32:00;1.37;;;1.37;;
7883;SDS011;3987;51.458;7.238;2022-09-01T01:34:26;1.30;;;1.20;;
7883;SDS011;3987;51.458;7.238;2022-09-01T01:36:51;1.40;;;0.60;;
7883;SDS011;3987;51.458;7.238;2022-09-01T01:39:18;1.17;;;1.07;;
7883;SDS011;3987;51.458;7.238;2022-09-01T01:41:46;0.93;;;0.93;;
7883;SDS011;3987;51.458;7.238;2022-09-01T01:44:16;1.87;;;1.13;;
7883;SDS011;3987;51.458;7.238;2022-09-01T01:46:45;2.57;;;1.20;;
7883;SDS011;3987;51.458;7.238;2022-09-01T01:49:14;1.20;;;1.20;;
7883;SDS011;3987;51.458;7.238;2022-09-01T01:51:44;1.33;;;1.33;;
7883;SDS011;3987;51.458;7.238;2022-09-01T01:54:11;2.60;;;1.17;;
7883;SDS011;3987;51.458;7.238;2022-09-01T01:56:37;1.47;;;1.40;;
7883;SDS011;3987;51.458;7.238;2022-09-01T01:59:04;1.20;;;1.20;;
7883;SDS011;3987;51.458;7.238;2022-09-01T02:01:31;1.17;;;0.80;;
7883;SDS011;3987;51.458;7.238;2022-09-01T02:03:57;1.87;;;1.20;;
7883;SDS011;3987;51.458;7.238;2022-09-01T02:06:24;1.23;;;1.13;;
7883;SDS011;3987;51.458;7.238;2022-09-01T02:08:54;2.03;;;0.97;;
7883;SDS011;3987;51.458;7.238;2022-09-01T02:11:22;3.63;;;1.30;;
7883;SDS011;3987;51.458;7.238;2022-09-01T02:13:51;1.23;;;1.13;;
7883;SDS011;3987;51.458;7.238;2022-09-01T02:16:20;1.43;;;1.33;;
7883;SDS011;3987;51.458;7.238;2022-09-01T02:18:47;1.40;;;1.23;;
7883;SDS011;3987;51.458;7.238;2022-09-01T02:21:14;2.60;;;1.23;;
7883;SDS011;3987;51.458;7.238;2022-09-01T02:23:44;3.40;;;1.30;;
7883;SDS011;3987;51.458;7.238;2022-09-01T02:26:12;3.23;;;1.40;;
7883;SDS011;3987;51.458;7.238;2022-09-01T02:28:39;1.70;;;1.60;;
7883;SDS011;3987;51.458;7.238;2022-09-01T02:31:07;3.77;;;1.60;;
7883;SDS011;3987;51.458;7.238;2022-09-01T02:33:36;1.83;;;1.73;;
7883;SDS011;3987;51.458;7.238;2022-09-01T02:36:05;1.67;;;1.40;;
7883;SDS011;3987;51.458;7.238;2022-09-01T02:38:33;1.37;;;1.20;;
7883;SDS011;3987;51.458;7.238;2022-09-01T02:40:59;2.90;;;1.30;;
7883;SDS011;3987;51.458;7.238;2022-09-01T02:43:27;3.23;;;1.63;;
7883;SDS011;3987;51.458;7.238;2022-09-01T02:45:53;2.43;;;1.33;;
7883;SDS011;3987;51.458;7.238;2022-09-01T02:48:24;1.60;;;1.60;;
7883;SDS011;3987;51.458;7.238;2022-09-01T02:50:53;1.90;;;1.70;;
7883;SDS011;3987;51.458;7.238;2022-09-01T02:53:21;1.27;;;1.27;;
7883;SDS011;3987;51.458;7.238;2022-09-01T02:55:47;1.53;;;1.43;;
7883;SDS011;3987;51.458;7.238;2022-09-01T02:58:12;4.03;;;1.63;;
7883;SDS011;3987;51.458;7.238;2022-09-01T03:00:44;1.67;;;1.57;;
7883;SDS011;3987;51.458;7.238;2022-09-01T03:03:10;1.63;;;1.10;;
7883;SDS011;3987;51.458;7.238;2022-09-01T03:05:36;1.40;;;1.37;;
7883;SDS011;3987;51.458;7.238;2022-09-01T03:08:05;1.40;;;1.30;;
7883;SDS011;3987;51.458;7.238;2022-09-01T03:10:35;1.63;;;1.63;;
7883;SDS011;3987;51.458;7.238;2022-09-01T03:13:11;2.03;;;1.90;;
7883;SDS011;3987;51.458;7.238;2022-09-01T03:15:41;1.43;;;1.40;;
7883;SDS011;3987;51.458;7.238;2022-09-01T03:18:08;5.67;;;1.60;;
7883;SDS011;3987;51.458;7.238;2022-09-01T03:20:36;1.60;;;1.60;;
7883;SDS011;3987;51.458;7.238;2022-09-01T03:23:05;1.57;;;1.43;;
7883;SDS011;3987;51.458;7.238;2022-09-01T03:25:32;1.40;;;1.40;;
7883;SDS011;3987;51.458;7.238;2022-09-01T03:27:58;2.53;;;1.60;;
7883;SDS011;3987;51.458;7.238;2022-09-01T03:30:29;1.37;;;1.30;;
7883;SDS011;3987;51.458;7.238;2022-09-01T03:32:56;1.40;;;1.40;;
7883;SDS011;3987;51.458;7.238;2022-09-01T03:35:23;2.93;;;1.70;;
7883;SDS011;3987;51.458;7.238;2022-09-01T03:37:50;2.30;;;1.53;;
7883;SDS011;3987;51.458;7.238;2022-09-01T03:40:16;1.50;;;1.43;;
7883;SDS011;3987;51.458;7.238;2022-09-01T03:42:43;2.10;;;1.67;;
7883;SDS011;3987;51.458;7.238;2022-09-01T03:45:10;2.50;;;1.60;;
7883;SDS011;3987;51.458;7.238;2022-09-01T03:47:38;1.47;;;1.40;;
7883;SDS011;3987;51.458;7.238;2022-09-01T03:50:06;2.40;;;1.77;;
7883;SDS011;3987;51.458;7.238;2022-09-01T03:52:37;3.40;;;1.50;;
7883;SDS011;3987;51.458;7.238;2022-09-01T03:55:04;1.87;;;1.77;;
7883;SDS011;3987;51.458;7.238;2022-09-01T03:57:30;2.10;;;1.60;;
7883;SDS011;3987;51.458;7.238;2022-09-01T03:59:55;1.23;;;1.17;;
7883;SDS011;3987;51.458;7.238;2022-09-01T04:02:21;1.53;;;1.40;;
7883;SDS011;3987;51.458;7.238;2022-09-01T04:04:47;5.73;;;1.90;;
7883;SDS011;3987;51.458;7.238;2022-09-01T04:07:12;1.70;;;1.70;;
7883;SDS011;3987;51.458;7.238;2022-09-01T04:09:38;1.77;;;1.63;;
7883;SDS011;3987;51.458;7.238;2022-09-01T04:12:04;2.23;;;1.50;;
7883;SDS011;3987;51.458;7.238;2022-09-01T04:14:34;6.10;;;1.50;;
7883;SDS011;3987;51.458;7.238;2022-09-01T04:16:59;4.37;;;1.50;;
7883;SDS011;3987;51.458;7.238;2022-09-01T04:19:43;1.90;;;1.80;;
7883;SDS011;3987;51.458;7.238;2022-09-01T04:22:09;2.57;;;1.87;;
7883;SDS011;3987;51.458;7.238;2022-09-01T04:24:40;3.10;;;1.60;;
7883;SDS011;3987;51.458;7.238;2022-09-01T04:27:09;2.30;;;1.77;;
7883;SDS011;3987;51.458;7.238;2022-09-01T04:29:34;1.50;;;1.50;;
7883;SDS011;3987;51.458;7.238;2022-09-01T04:32:02;2.83;;;1.67;;
7883;SDS011;3987;51.458;7.238;2022-09-01T04:34:36;1.83;;;1.80;;
7883;SDS011;3987;51.458;7.238;2022-09-01T04:37:11;1.90;;;1.80;;
7883;SDS011;3987;51.458;7.238;2022-09-01T04:39:40;1.80;;;1.80;;
7883;SDS011;3987;51.458;7.238;2022-09-01T04:42:13;1.80;;;1.70;;
7883;SDS011;3987;51.458;7.238;2022-09-01T04:44:38;1.60;;;1.50;;
7883;SDS011;3987;51.458;7.238;2022-09-01T04:47:04;2.63;;;2.47;;
7883;SDS011;3987;51.458;7.238;2022-09-01T04:49:35;2.70;;;2.17;;
7883;SDS011;3987;51.458;7.238;2022-09-01T04:52:01;1.97;;;1.70;;
7883;SDS011;3987;51.458;7.238;2022-09-01T04:54:27;2.30;;;2.20;;
7883;SDS011;3987;51.458;7.238;2022-09-01T04:56:54;3.53;;;2.10;;
7883;SDS011;3987;51.458;7.238;2022-09-01T04:59:21;2.43;;;2.10;;
7883;SDS011;3987;51.458;7.238;2022-09-01T05:01:54;3.40;;;2.10;;
7883;SDS011;3987;51.458;7.238;2022-09-01T05:04:22;4.40;;;1.80;;
7883;SDS011;3987;51.458;7.238;2022-09-01T05:06:52;1.90;;;1.73;;
7883;SDS011;3987;51.458;7.238;2022-09-01T05:09:24;2.50;;;1.63;;
7883;SDS011;3987;51.458;7.238;2022-09-01T05:12:19;2.43;;;2.23;;
7883;SDS011;3987;51.458;7.238;2022-09-01T05:14:46;2.80;;;2.27;;
7883;SDS011;3987;51.458;7.238;2022-09-01T05:17:15;3.73;;;2.07;;
7883;SDS011;3987;51.458;7.238;2022-09-01T05:19:42;2.40;;;1.93;;
7883;SDS011;3987;51.458;7.238;2022-09-01T05:22:09;1.90;;;1.80;;
7883;SDS011;3987;51.458;7.238;2022-09-01T05:24:39;1.97;;;1.97;;
7883;SDS011;3987;51.458;7.238;2022-09-01T05:27:05;2.20;;;2.07;;
7883;SDS011;3987;51.458;7.238;2022-09-01T05:29:33;2.23;;;1.97;;
7883;SDS011;3987;51.458;7.238;2022-09-01T05:32:03;2.37;;;2.07;;
7883;SDS011;3987;51.458;7.238;2022-09-01T05:34:35;2.03;;;1.90;;
7883;SDS011;3987;51.458;7.238;2022-09-01T05:37:04;2.60;;;2.00;;
7883;SDS011;3987;51.458;7.238;2022-09-01T05:39:31;2.40;;;1.70;;
7883;SDS011;3987;51.458;7.238;2022-09-01T05:41:57;2.57;;;1.90;;
7883;SDS011;3987;51.458;7.238;2022-09-01T05:44:23;2.33;;;2.00;;
7883;SDS011;3987;51.458;7.238;2022-09-01T05:46:51;6.00;;;2.00;;
7883;SDS011;3987;51.458;7.238;2022-09-01T05:49:18;2.43;;;2.23;;
7883;SDS011;3987;51.458;7.238;2022-09-01T05:51:46;3.33;;;1.77;;
7883;SDS011;3987;51.458;7.238;2022-09-01T05:54:21;2.67;;;2.13;;
7883;SDS011;3987;51.458;7.238;2022-09-01T05:56:51;3.23;;;1.93;;
7883;SDS011;3987;51.458;7.238;2022-09-01T05:59:35;5.23;;;2.33;;
7883;SDS011;3987;51.458;7.238;2022-09-01T06:02:09;2.60;;;2.20;;
7883;SDS011;3987;51.458;7.238;2022-09-01T06:04:36;3.27;;;2.47;;
7883;SDS011;3987;51.458;7.238;2022-09-01T06:07:12;5.20;;;2.30;;
7883;SDS011;3987;51.458;7.238;2022-09-01T06:09:45;2.20;;;1.97;;
7883;SDS011;3987;51.458;7.238;2022-09-01T06:12:11;2.47;;;2.37;;
7883;SDS011;3987;51.458;7.238;2022-09-01T06:14:43;4.70;;;2.20;;
7883;SDS011;3987;51.458;7.238;2022-09-01T06:17:09;2.40;;;1.77;;
7883;SDS011;3987;51.458;7.238;2022-09-01T06:19:35;1.97;;;1.83;;
7883;SDS011;3987;51.458;7.238;2022-09-01T06:22:02;3.63;;;2.30;;
7883;SDS011;3987;51.458;7.238;2022-09-01T06:24:28;2.50;;;2.00;;
7883;SDS011;3987;51.458;7.238;2022-09-01T06:26:54;2.33;;;2.03;;
7883;SDS011;3987;51.458;7.238;2022-09-01T06:29:19;2.23;;;2.03;;
7883;SDS011;3987;51.458;7.238;2022-09-01T06:31:48;1.83;;;1.67;;
7883;SDS011;3987;51.458;7.238;2022-09-01T06:34:17;1.93;;;1.83;;
7883;SDS011;3987;51.458;7.238;2022-09-01T06:36:44;3.30;;;1.80;;
7883;SDS011;3987;51.458;7.238;2022-09-01T06:39:13;4.07;;;1.40;;
7883;SDS011;3987;51.458;7.238;2022-09-01T06:41:47;1.50;;;1.50;;
7883;SDS011;3987;51.458;7.238;2022-09-01T06:44:17;2.00;;;1.47;;
7883;SDS011;3987;51.458;7.238;2022-09-01T06:46:51;2.53;;;1.47;;
7883;SDS011;3987;51.458;7.238;2022-09-01T06:49:17;1.50;;;1.40;;
7883;SDS011;3987;51.458;7.238;2022-09-01T06:51:43;2.83;;;1.90;;
7883;SDS011;3987;51.458;7.238;2022-09-01T06:54:14;2.00;;;1.80;;
7883;SDS011;3987;51.458;7.238;2022-09-01T06:56:40;3.10;;;1.70;;
7883;SDS011;3987;51.458;7.238;2022-09-01T06:59:06;1.37;;;1.27;;
7883;SDS011;3987;51.458;7.238;2022-09-01T07:01:33;1.73;;;1.67;;
7883;SDS011;3987;51.458;7.238;2022-09-01T07:04:00;1.70;;;1.33;;
7883;SDS011;3987;51.458;7.238;2022-09-01T07:06:30;1.63;;;1.53;;
7883;SDS011;3987;51.458;7.238;2022-09-01T07:09:17;1.47;;;1.37;;
7883;SDS011;3987;51.458;7.238;2022-09-01T07:11:56;4.33;;;1.70;;
7883;SDS011;3987;51.458;7.238;2022-09-01T07:14:24;1.67;;;1.53;;
7883;SDS011;3987;51.458;7.238;2022-09-01T07:16:50;2.40;;;1.10;;
7883;SDS011;3987;51.458;7.238;2022-09-01T07:19:15;3.80;;;1.57;;
7883;SDS011;3987;51.458;7.238;2022-09-01T07:21:48;1.83;;;1.40;;
7883;SDS011;3987;51.458;7.238;2022-09-01T07:24:15;2.77;;;1.43;;
7883;SDS011;3987;51.458;7.238;2022-09-01T07:27:02;3.80;;;1.20;;
7883;SDS011;3987;51.458;7.238;2022-09-01T07:29:27;1.73;;;1.40;;
7883;SDS011;3987;51.458;7.238;2022-09-01T07:31:53;4.00;;;1.40;;
7883;SDS011;3987;51.458;7.238;2022-09-01T07:34:20;2.57;;;1.00;;
7883;SDS011;3987;51.458;7.238;2022-09-01T07:36:46;1.77;;;1.23;;
7883;SDS011;3987;51.458;7.238;2022-09-01T07:39:12;2.33;;;1.40;;
7883;SDS011;3987;51.458;7.238;2022-09-01T07:41:40;3.60;;;1.20;;
7883;SDS011;3987;51.458;7.238;2022-09-01T07:44:36;3.23;;;1.20;;
7883;SDS011;3987;51.458;7.238;2022-09-01T07:47:21;1.97;;;0.93;;
7883;SDS011;3987;51.458;7.238;2022-09-01T07:49:48;1.33;;;1.23;;
7883;SDS011;3987;51.458;7.238;2022-09-01T07:52:13;2.33;;;1.10;;
7883;SDS011;3987;51.458;7.238;2022-09-01T07:54:41;3.43;;;1.00;;
7883;SDS011;3987;51.458;7.238;2022-09-01T07:57:07;1.47;;;0.90;;
7883;SDS011;3987;51.458;7.238;2022-09-01T07:59:33;1.07;;;0.93;;
7883;SDS011;3987;51.458;7.238;2022-09-01T08:02:04;3.80;;;0.93;;
7883;SDS011;3987;51.458;7.238;2022-09-01T08:04:30;2.17;;;0.87;;
7883;SDS011;3987;51.458;7.238;2022-09-01T08:06:58;0.80;;;0.70;;
7883;SDS011;3987;51.458;7.238;2022-09-01T08:09:26;0.73;;;0.70;;
7883;SDS011;3987;51.458;7.238;2022-09-01T08:11:51;6.43;;;1.17;;
7883;SDS011;3987;51.458;7.238;2022-09-01T08:14:17;1.30;;;0.90;;
7883;SDS011;3987;51.458;7.238;2022-09-01T08:16:43;1.20;;;0.87;;
7883;SDS011;3987;51.458;7.238;2022-09-01T08:19:08;0.93;;;0.93;;
7883;SDS011;3987;51.458;7.238;2022-09-01T08:22:00;1.10;;;0.63;;
7883;SDS011;3987;51.458;7.238;2022-09-01T08:24:33;1.40;;;0.93;;
7883;SDS011;3987;51.458;7.238;2022-09-01T08:26:59;1.17;;;0.77;;
7883;SDS011;3987;51.458;7.238;2022-09-01T08:29:25;3.60;;;0.80;;
7883;SDS011;3987;51.458;7.238;2022-09-01T08:31:50;1.00;;;0.67;;
7883;SDS011;3987;51.458;7.238;2022-09-01T08:34:18;2.10;;;0.70;;
7883;SDS011;3987;51.458;7.238;2022-09-01T08:36:44;1.43;;;0.63;;
7883;SDS011;3987;51.458;7.238;2022-09-01T08:39:10;1.17;;;0.60;;
7883;SDS011;3987;51.458;7.238;2022-09-01T08:44:19;3.30;;;1.10;;
7883;SDS011;3987;51.458;7.238;2022-09-01T08:46:58;3.07;;;0.60;;
7883;SDS011;3987;51.458;7.238;2022-09-01T08:49:28;0.70;;;0.70;;
7883;SDS011;3987;51.458;7.238;2022-09-01T08:54:48;2.97;;;0.60;;
7883;SDS011;3987;51.458;7.238;2022-09-01T08:57:19;0.70;;;0.70;;
7883;SDS011;3987;51.458;7.238;2022-09-01T09:00:06;2.27;;;0.60;;
7883;SDS011;3987;51.458;7.238;2022-09-01T09:14:11;1.03;;;0.70;;
7883;SDS011;3987;51.458;7.238;2022-09-01T09:16:51;0.80;;;0.67;;
7883;SDS011;3987;51.458;7.238;2022-09-01T09:19:20;0.97;;;0.50;;
7883;SDS011;3987;51.458;7.238;2022-09-01T09:21:54;1.77;;;0.60;;
7883;SDS011;3987;51.458;7.238;2022-09-01T09:24:28;0.77;;;0.77;;
7883;SDS011;3987;51.458;7.238;2022-09-01T09:27:15;1.40;;;0.70;;
7883;SDS011;3987;51.458;7.238;2022-09-01T09:37:52;0.57;;;0.57;;
7883;SDS011;3987;51.458;7.238;2022-09-01T09:40:18;3.17;;;0.60;;
7883;SDS011;3987;51.458;7.238;2022-09-01T09:45:24;3.67;;;1.43;;
7883;SDS011;3987;51.458;7.238;2022-09-01T09:47:58;0.60;;;0.60;;
7883;SDS011;3987;51.458;7.238;2022-09-01T09:53:10;2.13;;;0.60;;
7883;SDS011;3987;51.458;7.238;2022-09-01T09:55:36;0.63;;;0.63;;
7883;SDS011;3987;51.458;7.238;2022-09-01T09:58:15;1.97;;;0.70;;
7883;SDS011;3987;51.458;7.238;2022-09-01T10:00:40;1.90;;;0.97;;
7883;SDS011;3987;51.458;7.238;2022-09-01T10:03:39;2.40;;;0.40;;
7883;SDS011;3987;51.458;7.238;2022-09-01T10:06:28;3.00;;;0.60;;
7883;SDS011;3987;51.458;7.238;2022-09-01T10:08:54;2.30;;;0.60;;
7883;SDS011;3987;51.458;7.238;2022-09-01T10:11:24;1.50;;;0.87;;
7883;SDS011;3987;51.458;7.238;2022-09-01T10:13:52;0.97;;;0.50;;
7883;SDS011;3987;51.458;7.238;2022-09-01T10:16:24;0.67;;;0.63;;
7883;SDS011;3987;51.458;7.238;2022-09-01T10:18:51;2.90;;;1.07;;
7883;SDS011;3987;51.458;7.238;2022-09-01T10:21:21;2.00;;;0.60;;
7883;SDS011;3987;51.458;7.238;2022-09-01T10:23:49;1.57;;;0.70;;
7883;SDS011;3987;51.458;7.238;2022-09-01T10:26:16;2.53;;;0.80;;
7883;SDS011;3987;51.458;7.238;2022-09-01T10:28:47;3.03;;;0.70;;
7883;SDS011;3987;51.458;7.238;2022-09-01T10:31:17;1.13;;;0.50;;
7883;SDS011;3987;51.458;7.238;2022-09-01T10:33:44;1.37;;;0.60;;
7883;SDS011;3987;51.458;7.238;2022-09-01T10:36:09;3.10;;;0.77;;
7883;SDS011;3987;51.458;7.238;2022-09-01T10:38:35;7.43;;;1.07;;
7883;SDS011;3987;51.458;7.238;2022-09-01T10:41:00;2.10;;;0.70;;
7883;SDS011;3987;51.458;7.238;2022-09-01T10:43:33;1.13;;;0.50;;
7883;SDS011;3987;51.458;7.238;2022-09-01T10:46:00;4.00;;;0.50;;
7883;SDS011;3987;51.458;7.238;2022-09-01T10:48:58;4.77;;;0.53;;
7883;SDS011;3987;51.458;7.238;2022-09-01T10:53:52;1.43;;;0.37;;
7883;SDS011;3987;51.458;7.238;2022-09-01T10:59:10;2.30;;;0.70;;
7883;SDS011;3987;51.458;7.238;2022-09-01T11:05:09;1.90;;;0.77;;
7883;SDS011;3987;51.458;7.238;2022-09-01T11:07:29;0.80;;;0.80;;
7883;SDS011;3987;51.458;7.238;2022-09-01T11:10:07;2.03;;;0.80;;
7883;SDS011;3987;51.458;7.238;2022-09-01T11:17:58;0.37;;;0.37;;
7883;SDS011;3987;51.458;7.238;2022-09-01T11:20:28;0.50;;;0.50;;
7883;SDS011;3987;51.458;7.238;2022-09-01T11:22:59;1.03;;;0.70;;
7883;SDS011;3987;51.458;7.238;2022-09-01T11:28:07;1.73;;;0.57;;
7883;SDS011;3987;51.458;7.238;2022-09-01T11:33:25;1.73;;;0.50;;
7883;SDS011;3987;51.458;7.238;2022-09-01T11:35:57;0.80;;;0.60;;
7883;SDS011;3987;51.458;7.238;2022-09-01T11:38:28;2.77;;;0.93;;
7883;SDS011;3987;51.458;7.238;2022-09-01T11:40:58;1.17;;;0.70;;
7883;SDS011;3987;51.458;7.238;2022-09-01T11:43:24;2.53;;;0.77;;
7883;SDS011;3987;51.458;7.238;2022-09-01T11:48:31;1.70;;;0.70;;
7883;SDS011;3987;51.458;7.238;2022-09-01T11:50:57;2.07;;;0.63;;
7883;SDS011;3987;51.458;7.238;2022-09-01T11:53:24;6.70;;;1.00;;
7883;SDS011;3987;51.458;7.238;2022-09-01T11:55:51;4.13;;;0.90;;
7883;SDS011;3987;51.458;7.238;2022-09-01T12:03:42;0.70;;;0.70;;
7883;SDS011;3987;51.458;7.238;2022-09-01T12:06:09;0.60;;;0.50;;
7883;SDS011;3987;51.458;7.238;2022-09-01T12:08:37;0.77;;;0.70;;
7883;SDS011;3987;51.458;7.238;2022-09-01T12:11:06;0.77;;;0.60;;
7883;SDS011;3987;51.458;7.238;2022-09-01T12:13:34;3.07;;;0.90;;
7883;SDS011;3987;51.458;7.238;2022-09-01T12:16:01;2.13;;;0.70;;
7883;SDS011;3987;51.458;7.238;2022-09-01T12:18:48;0.87;;;0.70;;
7883;SDS011;3987;51.458;7.238;2022-09-01T12:21:37;1.93;;;0.80;;
7883;SDS011;3987;51.458;7.238;2022-09-01T12:26:46;1.23;;;0.50;;
7883;SDS011;3987;51.458;7.238;2022-09-01T12:29:13;0.60;;;0.60;;
7883;SDS011;3987;51.458;7.238;2022-09-01T12:31:40;1.07;;;0.50;;
7883;SDS011;3987;51.458;7.238;2022-09-01T12:39:43;1.17;;;0.43;;
7883;SDS011;3987;51.458;7.238;2022-09-01T12:42:23;4.43;;;0.70;;
7883;SDS011;3987;51.458;7.238;2022-09-01T12:44:58;1.00;;;0.60;;
7883;SDS011;3987;51.458;7.238;2022-09-01T12:52:47;0.93;;;0.50;;
7883;SDS011;3987;51.458;7.238;2022-09-01T12:55:25;10.10;;;1.00;;
7883;SDS011;3987;51.458;7.238;2022-09-01T12:57:54;2.57;;;0.80;;
7883;SDS011;3987;51.458;7.238;2022-09-01T13:00:23;3.77;;;0.60;;
7883;SDS011;3987;51.458;7.238;2022-09-01T13:05:37;3.37;;;0.70;;
7883;SDS011;3987;51.458;7.238;2022-09-01T13:08:16;0.50;;;0.50;;
7883;SDS011;3987;51.458;7.238;2022-09-01T13:10:47;0.70;;;0.70;;
7883;SDS011;3987;51.458;7.238;2022-09-01T13:13:14;0.97;;;0.50;;
7883;SDS011;3987;51.458;7.238;2022-09-01T13:15:42;5.03;;;0.67;;
7883;SDS011;3987;51.458;7.238;2022-09-01T13:18:12;1.37;;;0.30;;
7883;SDS011;3987;51.458;7.238;2022-09-01T13:20:38;1.43;;;0.40;;
7883;SDS011;3987;51.458;7.238;2022-09-01T13:23:03;1.03;;;0.47;;
7883;SDS011;3987;51.458;7.238;2022-09-01T13:25:29;0.73;;;0.70;;
7883;SDS011;3987;51.458;7.238;2022-09-01T13:27:54;3.97;;;0.90;;
7883;SDS011;3987;51.458;7.238;2022-09-01T13:30:21;1.43;;;0.70;;
7883;SDS011;3987;51.458;7.238;2022-09-01T13:32:48;0.50;;;0.50;;
7883;SDS011;3987;51.458;7.238;2022-09-01T13:35:15;5.07;;;0.70;;
7883;SDS011;3987;51.458;7.238;2022-09-01T13:37:45;1.90;;;0.60;;
7883;SDS011;3987;51.458;7.238;2022-09-01T13:40:11;4.63;;;0.77;;
7883;SDS011;3987;51.458;7.238;2022-09-01T13:42:44;7.93;;;0.80;;
7883;SDS011;3987;51.458;7.238;2022-09-01T13:45:11;1.40;;;0.40;;
7883;SDS011;3987;51.458;7.238;2022-09-01T13:47:40;1.43;;;0.50;;
7883;SDS011;3987;51.458;7.238;2022-09-01T13:50:06;2.47;;;0.60;;
7883;SDS011;3987;51.458;7.238;2022-09-01T13:52:33;2.50;;;0.60;;
7883;SDS011;3987;51.458;7.238;2022-09-01T13:54:58;4.03;;;0.50;;
7883;SDS011;3987;51.458;7.238;2022-09-01T13:57:25;0.60;;;0.60;;
7883;SDS011;3987;51.458;7.238;2022-09-01T13:59:51;0.80;;;0.63;;
7883;SDS011;3987;51.458;7.238;2022-09-01T14:02:16;0.70;;;0.40;;
7883;SDS011;3987;51.458;7.238;2022-09-01T14:04:42;0.30;;;0.30;;
7883;SDS011;3987;51.458;7.238;2022-09-01T14:07:07;0.60;;;0.40;;
7883;SDS011;3987;51.458;7.238;2022-09-01T14:09:34;1.63;;;0.40;;
7883;SDS011;3987;51.458;7.238;2022-09-01T14:11:59;1.43;;;0.30;;
7883;SDS011;3987;51.458;7.238;2022-09-01T14:14:24;1.23;;;0.50;;
7883;SDS011;3987;51.458;7.238;2022-09-01T14:16:50;2.77;;;0.40;;
7883;SDS011;3987;51.458;7.238;2022-09-01T14:19:16;5.63;;;0.57;;
7883;SDS011;3987;51.458;7.238;2022-09-01T14:21:41;0.80;;;0.60;;
7883;SDS011;3987;51.458;7.238;2022-09-01T14:24:06;1.10;;;0.57;;
7883;SDS011;3987;51.458;7.238;2022-09-01T14:26:32;1.07;;;0.47;;
7883;SDS011;3987;51.458;7.238;2022-09-01T14:28:57;1.10;;;0.67;;
7883;SDS011;3987;51.458;7.238;2022-09-01T14:31:24;0.53;;;0.33;;
7883;SDS011;3987;51.458;7.238;2022-09-01T14:33:50;0.50;;;0.50;;
7883;SDS011;3987;51.458;7.238;2022-09-01T14:36:17;1.63;;;0.80;;
7883;SDS011;3987;51.458;7.238;2022-09-01T14:38:44;0.83;;;0.60;;
7883;SDS011;3987;51.458;7.238;2022-09-01T14:41:14;2.40;;;0.60;;
7883;SDS011;3987;51.458;7.238;2022-09-01T14:43:40;2.47;;;0.60;;
7883;SDS011;3987;51.458;7.238;2022-09-01T14:46:07;3.40;;;0.60;;
7883;SDS011;3987;51.458;7.238;2022-09-01T14:48:35;3.53;;;0.60;;
7883;SDS011;3987;51.458;7.238;2022-09-01T14:51:01;3.20;;;0.50;;
7883;SDS011;3987;51.458;7.238;2022-09-01T14:53:27;2.47;;;0.40;;
7883;SDS011;3987;51.458;7.238;2022-09-01T14:55:54;1.23;;;0.60;;
7883;SDS011;3987;51.458;7.238;2022-09-01T14:58:20;0.50;;;0.50;;
7883;SDS011;3987;51.458;7.238;2022-09-01T15:00:46;0.50;;;0.50;;
7883;SDS011;3987;51.458;7.238;2022-09-01T15:03:11;1.27;;;0.50;;
7883;SDS011;3987;51.458;7.238;2022-09-01T15:05:37;1.50;;;0.60;;
7883;SDS011;3987;51.458;7.238;2022-09-01T15:08:03;9.80;;;1.20;;
7883;SDS011;3987;51.458;7.238;2022-09-01T15:10:28;6.57;;;0.83;;
7883;SDS011;3987;51.458;7.238;2022-09-01T15:12:56;1.77;;;0.60;;
7883;SDS011;3987;51.458;7.238;2022-09-01T15:15:23;0.77;;;0.37;;
7883;SDS011;3987;51.458;7.238;2022-09-01T15:17:49;2.70;;;0.70;;
7883;SDS011;3987;51.458;7.238;2022-09-01T15:20:14;4.93;;;0.70;;
7883;SDS011;3987;51.458;7.238;2022-09-01T15:22:58;1.93;;;0.67;;
7883;SDS011;3987;51.458;7.238;2022-09-01T15:25:25;3.03;;;0.70;;
7883;SDS011;3987;51.458;7.238;2022-09-01T15:27:50;2.10;;;0.70;;
7883;SDS011;3987;51.458;7.238;2022-09-01T15:30:16;3.40;;;0.50;;
7883;SDS011;3987;51.458;7.238;2022-09-01T15:32:43;3.57;;;0.60;;
7883;SDS011;3987;51.458;7.238;2022-09-01T15:35:10;4.03;;;0.70;;
7883;SDS011;3987;51.458;7.238;2022-09-01T15:37:35;0.50;;;0.50;;
7883;SDS011;3987;51.458;7.238;2022-09-01T15:40:01;0.83;;;0.60;;
7883;SDS011;3987;51.458;7.238;2022-09-01T15:42:29;1.17;;;0.50;;
7883;SDS011;3987;51.458;7.238;2022-09-01T15:44:55;2.37;;;0.63;;
7883;SDS011;3987;51.458;7.238;2022-09-01T15:47:20;2.00;;;0.70;;
7883;SDS011;3987;51.458;7.238;2022-09-01T15:49:46;0.53;;;0.47;;
7883;SDS011;3987;51.458;7.238;2022-09-01T15:52:11;2.60;;;0.50;;
7883;SDS011;3987;51.458;7.238;2022-09-01T15:54:38;0.77;;;0.50;;
7883;SDS011;3987;51.458;7.238;2022-09-01T15:57:04;1.90;;;0.40;;
7883;SDS011;3987;51.458;7.238;2022-09-01T15:59:29;1.90;;;0.43;;
7883;SDS011;3987;51.458;7.238;2022-09-01T16:01:55;1.97;;;0.30;;
7883;SDS011;3987;51.458;7.238;2022-09-01T16:04:21;0.87;;;0.40;;
7883;SDS011;3987;51.458;7.238;2022-09-01T16:06:48;1.50;;;0.50;;
7883;SDS011;3987;51.458;7.238;2022-09-01T16:09:15;1.90;;;0.50;;
7883;SDS011;3987;51.458;7.238;2022-09-01T16:11:42;0.50;;;0.43;;
7883;SDS011;3987;51.458;7.238;2022-09-01T16:14:08;0.60;;;0.60;;
7883;SDS011;3987;51.458;7.238;2022-09-01T16:16:43;1.43;;;0.90;;
7883;SDS011;3987;51.458;7.238;2022-09-01T16:24:54;2.30;;;0.90;;
7883;SDS011;3987;51.458;7.238;2022-09-01T16:27:28;2.63;;;0.60;;
7883;SDS011;3987;51.458;7.238;2022-09-01T16:30:05;0.67;;;0.60;;
7883;SDS011;3987;51.458;7.238;2022-09-01T16:32:33;3.97;;;0.60;;
7883;SDS011;3987;51.458;7.238;2022-09-01T16:34:59;3.13;;;0.37;;
7883;SDS011;3987;51.458;7.238;2022-09-01T16:45:30;3.27;;;0.50;;
7883;SDS011;3987;51.458;7.238;2022-09-01T16:48:20;0.60;;;0.60;;
7883;SDS011;3987;51.458;7.238;2022-09-01T16:56:12;3.87;;;0.40;;
7883;SDS011;3987;51.458;7.238;2022-09-01T17:04:22;7.03;;;0.60;;